NORTHERN QUEENS  -  Air Quality Alert Air Quality Alert        SOUTHERN QUEENS  -  Air Quality Alert Air Quality Alert      

Active alerts

Northern Queens
  Details for Northern Queens Air Quality Alert
Southern Queens
  Details for Southern Queens Air Quality Alert


WXM80 ListenWXM80 Stop

You find our weather info also at:

UK Metoffice

WeatherCloud

Weather Underground

Northeastern Weather Network

AWEKAS

Citizen Weather Observer Program (CWOP)

HAMweather, WeatherForYou, PWS Weather


Weather Underground History page Text

Daily Summary for February 23, 2017 Units:  Metric    English   Both
« Previous Day
Next Day »
Daily Weekly Monthly Yearly Custom
  High: Low: Average:
Temperature: 15.6 °C 3.3 °C 8.9 °C
Dew Point: 12.1 °C 2.6 °C 7 °C
Humidity: 96 % 73 % 88 %
Wind Speed: 9.7 km/h 0 km/h 2.3 km/h
Wind Gust: 18.5 km/h - -
Wind:- - SSW
Pressure: 1012.1 hPa 1007.7 hPa -
Precipitation: 0 mm    
Historical Graphs
 
 
Tabular Data for February 23, 2017
Time Temperature Dew Point Pressure Wind Wind Speed Wind Gust Humidity Rainfall Rate (Hourly)
00:03 5.3 °C 4.1 °C 1010.7 hPa West 0.3 km/h 1.9 km/h 92 % 0 mm
00:08 5.3 °C 4.1 °C 1010.7 hPa Calm     92 % 0 mm
00:13 5.3 °C 4.1 °C 1010.7 hPa Calm     92 % 0 mm
00:18 5.3 °C 4.1 °C 1011.1 hPa Calm     92 % 0 mm
00:23 5.3 °C 4.2 °C 1011.1 hPa Calm     93 % 0 mm
00:28 5.3 °C 4.2 °C 1011.1 hPa Calm     93 % 0 mm
00:33 5.2 °C 4.1 °C 1011.1 hPa Calm     92 % 0 mm
00:38 5.1 °C 3.9 °C 1011.1 hPa Calm     92 % 0 mm
00:43 5.1 °C 3.9 °C 1011.1 hPa Calm     92 % 0 mm
00:48 4.9 °C 3.8 °C 1011.1 hPa Calm     92 % 0 mm
00:54 4.8 °C 3.7 °C 1011.1 hPa Calm     92 % 0 mm
00:59 4.7 °C 3.4 °C 1011.1 hPa Calm     91 % 0 mm
01:04 4.6 °C 3.2 °C 1011.1 hPa Calm     91 % 0 mm
01:09 4.4 °C 3.1 °C 1011.1 hPa Calm     91 % 0 mm
01:14 4.3 °C 3 °C 1011.1 hPa Calm     91 % 0 mm
01:19 4.2 °C 2.9 °C 1011.4 hPa Calm     91 % 0 mm
01:24 4.2 °C 2.8 °C 1011.4 hPa Calm     91 % 0 mm
01:29 4.1 °C 2.8 °C 1011.4 hPa Calm     91 % 0 mm
01:34 4.1 °C 2.7 °C 1011.4 hPa Calm     91 % 0 mm
01:39 4 °C 2.8 °C 1011.4 hPa Calm     92 % 0 mm
01:44 3.9 °C 2.6 °C 1011.4 hPa West 0.3 km/h 1.9 km/h 91 % 0 mm
01:49 3.9 °C 2.8 °C 1011.1 hPa West 1.9 km/h 3.2 km/h 92 % 0 mm
01:54 3.9 °C 2.7 °C 1011.1 hPa West 0.8 km/h 3.7 km/h 92 % 0 mm
01:59 3.9 °C 2.8 °C 1011.1 hPa West 0.2 km/h 1.9 km/h 92 % 0 mm
02:04 3.9 °C 2.9 °C 1011.1 hPa West 1 km/h 3.7 km/h 93 % 0 mm
02:09 3.9 °C 2.9 °C 1011.1 hPa West 1.1 km/h 3.7 km/h 93 % 0 mm
02:14 4 °C 2.9 °C 1011.1 hPa West 0.5 km/h 3.7 km/h 93 % 0 mm
02:19 4 °C 2.9 °C 1011.1 hPa West 0.6 km/h 3.7 km/h 93 % 0 mm
02:24 4.1 °C 3.2 °C 1011.1 hPa Calm   1.9 km/h 94 % 0 mm
02:29 4.2 °C 3.3 °C 1011.1 hPa Calm   1.9 km/h 94 % 0 mm
02:34 4.2 °C 3.3 °C 1011.1 hPa West 0.2 km/h 1.9 km/h 94 % 0 mm
02:39 4.3 °C 3.4 °C 1011.1 hPa West 1.6 km/h 3.7 km/h 94 % 0 mm
02:44 4.3 °C 3.4 °C 1011.1 hPa West 0.3 km/h 1.9 km/h 94 % 0 mm
02:49 4.3 °C 3.4 °C 1011.1 hPa West 0.6 km/h 1.9 km/h 94 % 0 mm
02:55 4.4 °C 3.5 °C 1011.1 hPa West 0.6 km/h 3.7 km/h 94 % 0 mm
03:00 4.4 °C 3.5 °C 1011.1 hPa West 1.9 km/h 3.7 km/h 94 % 0 mm
03:05 4.4 °C 3.6 °C 1010.7 hPa West 1.1 km/h 3.7 km/h 94 % 0 mm
03:10 4.4 °C 3.6 °C 1010.7 hPa West 1.9 km/h 3.7 km/h 94 % 0 mm
03:15 4.5 °C 3.6 °C 1010.7 hPa West 2.3 km/h 3.7 km/h 94 % 0 mm
03:20 4.5 °C 3.8 °C 1010.7 hPa West 2.3 km/h 5.6 km/h 95 % 0 mm
03:25 4.6 °C 3.8 °C 1010.7 hPa West 0.6 km/h 3.7 km/h 95 % 0 mm
03:31 4.6 °C 3.9 °C 1010.7 hPa West 0.2 km/h 1.9 km/h 95 % 0 mm
03:36 4.6 °C 3.9 °C 1010.7 hPa West 0.6 km/h 3.7 km/h 95 % 0 mm
03:41 4.7 °C 3.9 °C 1010.7 hPa Calm     95 % 0 mm
03:46 4.7 °C 3.9 °C 1010.7 hPa Calm   1.9 km/h 95 % 0 mm
03:51 4.6 °C 3.9 °C 1010.7 hPa Calm   1.9 km/h 95 % 0 mm
03:56 4.6 °C 3.9 °C 1011.1 hPa Calm   1.9 km/h 95 % 0 mm
04:01 4.6 °C 3.8 °C 1011.1 hPa Calm     95 % 0 mm
04:06 4.5 °C 3.8 °C 1011.1 hPa Calm     95 % 0 mm
04:11 4.4 °C 3.6 °C 1011.1 hPa West 1.4 km/h 1.9 km/h 94 % 0 mm
04:16 4.4 °C 3.6 °C 1011.1 hPa West 0.5 km/h 1.9 km/h 94 % 0 mm
04:21 4.4 °C 3.5 °C 1010.7 hPa Calm     94 % 0 mm
04:26 4.3 °C 3.4 °C 1010.7 hPa Calm     94 % 0 mm
04:31 4.3 °C 3.4 °C 1010.7 hPa Calm     94 % 0 mm
04:36 4.2 °C 3.3 °C 1010.7 hPa Calm     94 % 0 mm
04:41 4.2 °C 3.3 °C 1010.7 hPa West 0.2 km/h 1.9 km/h 94 % 0 mm
04:46 4.1 °C 3.2 °C 1010.7 hPa Calm     94 % 0 mm
04:51 4 °C 3.1 °C 1011.1 hPa West 0.6 km/h 3.7 km/h 94 % 0 mm
04:56 3.9 °C 3.1 °C 1010.7 hPa Calm     94 % 0 mm
05:01 3.9 °C 3.1 °C 1010.7 hPa Calm     94 % 0 mm
05:06 3.9 °C 3.1 °C 1010.7 hPa West 1 km/h 3.7 km/h 94 % 0 mm
05:07 3.9 °C 3 °C 1010.7 hPa Calm   3.7 km/h 94 % 0 mm
05:12 3.9 °C 3 °C 1010.7 hPa Calm   1.9 km/h 94 % 0 mm
05:17 3.8 °C 2.9 °C 1010.7 hPa Calm   1.9 km/h 94 % 0 mm
05:22 3.8 °C 2.9 °C 1010.7 hPa West 0.3 km/h 1.9 km/h 94 % 0 mm
05:27 3.7 °C 2.8 °C 1010.7 hPa Calm     94 % 0 mm
05:32 3.7 °C 2.8 °C 1010.7 hPa Calm   1.9 km/h 94 % 0 mm
05:37 3.7 °C 2.8 °C 1010.7 hPa Calm     94 % 0 mm
05:42 3.7 °C 3 °C 1010.7 hPa Calm     95 % 0 mm
05:47 3.7 °C 3 °C 1010.7 hPa Calm     95 % 0 mm
05:52 3.7 °C 3 °C 1010.7 hPa Calm   1.9 km/h 95 % 0 mm
05:57 3.7 °C 2.9 °C 1010.7 hPa Calm     95 % 0 mm
06:02 3.7 °C 2.9 °C 1010.7 hPa Calm     95 % 0 mm
06:07 3.6 °C 2.9 °C 1010.7 hPa Calm     95 % 0 mm
06:12 3.6 °C 2.8 °C 1011.1 hPa Calm   1.9 km/h 95 % 0 mm
06:17 3.5 °C 2.8 °C 1011.1 hPa Calm     95 % 0 mm
06:22 3.4 °C 2.7 °C 1011.1 hPa Calm     95 % 0 mm
06:28 3.4 °C 2.7 °C 1011.1 hPa Calm     95 % 0 mm
06:33 3.4 °C 2.7 °C 1011.1 hPa West 0.3 km/h 1.6 km/h 95 % 0 mm
06:38 3.3 °C 2.6 °C 1011.1 hPa Calm     95 % 0 mm
06:43 3.3 °C 2.6 °C 1011.1 hPa Calm     95 % 0 mm
06:48 3.3 °C 2.6 °C 1011.1 hPa Calm     95 % 0 mm
06:53 3.3 °C 2.6 °C 1011.1 hPa Calm     95 % 0 mm
06:58 3.3 °C 2.6 °C 1011.1 hPa Calm     95 % 0 mm
07:03 3.3 °C 2.6 °C 1011.1 hPa Calm     95 % 0 mm
07:08 3.3 °C 2.6 °C 1011.1 hPa Calm     95 % 0 mm
07:13 3.3 °C 2.6 °C 1011.1 hPa Calm     95 % 0 mm
07:18 3.3 °C 2.6 °C 1011.1 hPa Calm     95 % 0 mm
07:23 3.3 °C 2.6 °C 1011.1 hPa Calm     95 % 0 mm
07:28 3.3 °C 2.6 °C 1011.4 hPa Calm     95 % 0 mm
07:33 3.4 °C 2.7 °C 1011.4 hPa Calm     95 % 0 mm
07:38 3.4 °C 2.7 °C 1011.4 hPa Calm     95 % 0 mm
07:43 3.6 °C 2.8 °C 1011.4 hPa Calm     95 % 0 mm
07:48 3.7 °C 2.9 °C 1011.7 hPa Calm     95 % 0 mm
07:53 3.8 °C 3.2 °C 1011.7 hPa Calm   1.6 km/h 96 % 0 mm
07:58 4.1 °C 3.5 °C 1011.7 hPa Calm     96 % 0 mm
08:03 4.4 °C 3.8 °C 1011.7 hPa Calm   1.9 km/h 96 % 0 mm
08:08 4.7 °C 4.1 °C 1011.7 hPa West 1.1 km/h 5.6 km/h 96 % 0 mm
08:13 4.9 °C 4.3 °C 1011.7 hPa WNW 2.1 km/h 5.6 km/h 96 % 0 mm
08:18 5.1 °C 4.5 °C 1011.7 hPa WNW 3.7 km/h 5.6 km/h 96 % 0 mm
08:23 5.3 °C 4.7 °C 1011.7 hPa WNW 3.4 km/h 5.6 km/h 96 % 0 mm
08:28 5.4 °C 4.8 °C 1012.1 hPa WNW 3.9 km/h 5.6 km/h 96 % 0 mm
08:33 5.5 °C 4.9 °C 1012.1 hPa WNW 2.6 km/h 5.6 km/h 96 % 0 mm
08:38 5.6 °C 5 °C 1012.1 hPa West 1.9 km/h 5.6 km/h 96 % 0 mm
08:43 5.8 °C 5.2 °C 1011.7 hPa West 1.8 km/h 5.6 km/h 96 % 0 mm
08:49 6 °C 5.4 °C 1012.1 hPa WNW 2.1 km/h 4.8 km/h 96 % 0 mm
08:54 6.2 °C 5.6 °C 1012.1 hPa WNW 4.2 km/h 6.4 km/h 96 % 0 mm
08:59 6.3 °C 5.7 °C 1012.1 hPa WNW 1.8 km/h 3.2 km/h 96 % 0 mm
09:04 6.3 °C 5.7 °C 1012.1 hPa NW 4.7 km/h 5.6 km/h 96 % 0 mm
09:09 6.2 °C 5.5 °C 1011.7 hPa NW 2.1 km/h 3.7 km/h 95 % 0 mm
09:14 6.2 °C 5.4 °C 1012.1 hPa NW 0.3 km/h 3.2 km/h 95 % 0 mm
09:19 6.2 °C 5.5 °C 1012.1 hPa NW 0.2 km/h 3.7 km/h 95 % 0 mm
09:24 6.2 °C 5.5 °C 1012.1 hPa Calm   1.9 km/h 95 % 0 mm
09:29 6.3 °C 5.6 °C 1012.1 hPa Calm     95 % 0 mm
09:34 6.3 °C 5.4 °C 1012.1 hPa Calm   1.9 km/h 94 % 0 mm
09:39 6.3 °C 5.4 °C 1012.1 hPa Calm     94 % 0 mm
09:44 6.3 °C 5.2 °C 1012.1 hPa Calm     93 % 0 mm
09:49 6.4 °C 5.3 °C 1012.1 hPa Calm     93 % 0 mm
09:54 6.5 °C 5.4 °C 1012.1 hPa NNW 2.6 km/h 5.6 km/h 93 % 0 mm
09:59 6.6 °C 5.5 °C 1012.1 hPa NNW 1.6 km/h 5.6 km/h 93 % 0 mm
10:04 6.7 °C 5.4 °C 1011.7 hPa NNW 0.5 km/h 3.7 km/h 92 % 0 mm
10:09 6.7 °C 5.5 °C 1012.1 hPa NNW 2.1 km/h 3.7 km/h 92 % 0 mm
10:14 6.8 °C 5.4 °C 1011.7 hPa Calm   1.9 km/h 91 % 0 mm
10:19 6.8 °C 5.4 °C 1011.7 hPa North 1.8 km/h 3.7 km/h 91 % 0 mm
10:24 6.7 °C 5.2 °C 1011.7 hPa North 1.6 km/h 3.7 km/h 90 % 0 mm
10:29 6.7 °C 5.1 °C 1011.7 hPa NNE 1.1 km/h 3.7 km/h 89 % 0 mm
10:34 6.7 °C 5.2 °C 1011.7 hPa NNE 0.5 km/h 3.2 km/h 90 % 0 mm
10:39 6.7 °C 5 °C 1011.4 hPa Calm     89 % 0 mm
10:45 6.7 °C 5.2 °C 1011.4 hPa Calm     90 % 0 mm
10:50 6.8 °C 5.3 °C 1011.4 hPa Calm     90 % 0 mm
10:55 7.1 °C 5.7 °C 1011.1 hPa Calm     91 % 0 mm
11:00 7.3 °C 5.9 °C 1011.1 hPa NNE 0.3 km/h 1.9 km/h 91 % 0 mm
11:05 7.6 °C 6.4 °C 1010.7 hPa NNE 0.6 km/h 3.7 km/h 92 % 0 mm
11:10 8 °C 6.4 °C 1010.7 hPa NNE 2.9 km/h 5.6 km/h 90 % 0 mm
11:15 8.2 °C 6.5 °C 1010.7 hPa NE 3.5 km/h 5.6 km/h 89 % 0 mm
11:20 8.8 °C 7.2 °C 1010.4 hPa NNE 2.3 km/h 6.4 km/h 90 % 0 mm
11:25 9.1 °C 7.4 °C 1010.4 hPa WSW 1.6 km/h 7.4 km/h 89 % 0 mm
11:30 9.6 °C 8.1 °C 1010.4 hPa SW 1.9 km/h 7.4 km/h 90 % 0 mm
11:35 10.3 °C 8.9 °C 1010.4 hPa NNE 4.5 km/h 6.4 km/h 91 % 0 mm
11:40 10.5 °C 8.3 °C 1010.4 hPa North 2.6 km/h 5.6 km/h 86 % 0 mm
11:45 10.8 °C 8.2 °C 1010 hPa North 1.8 km/h 5.6 km/h 84 % 0 mm
11:50 10.8 °C 7.3 °C 1010 hPa ENE 1.6 km/h 5.6 km/h 79 % 0 mm
11:55 10.6 °C 7.1 °C 1010.4 hPa NE 2.3 km/h 3.7 km/h 79 % 0 mm
12:00 10.3 °C 6.8 °C 1010 hPa NE 1.3 km/h 3.7 km/h 79 % 0 mm
12:05 9.9 °C 6.7 °C 1010 hPa ENE 3.9 km/h 5.6 km/h 80 % 0 mm
12:10 9.9 °C 7 °C 1010 hPa NNE 1.6 km/h 3.7 km/h 82 % 0 mm
12:15 9.9 °C 6.9 °C 1010 hPa NE 1.1 km/h 3.7 km/h 82 % 0 mm
12:20 10 °C 7.1 °C 1010 hPa NE 3.1 km/h 5.6 km/h 82 % 0 mm
12:26 9.9 °C 6.9 °C 1010 hPa NE 0.5 km/h 1.9 km/h 82 % 0 mm
12:31 10.2 °C 7.6 °C 1009.7 hPa North 4.8 km/h 7.4 km/h 84 % 0 mm
12:36 10.5 °C 7.7 °C 1010 hPa WNW 4.3 km/h 7.4 km/h 83 % 0 mm
12:41 10.6 °C 7.5 °C 1010 hPa NW 2.9 km/h 3.7 km/h 81 % 0 mm
12:46 10.9 °C 7.8 °C 1009.7 hPa NW 3.5 km/h 5.6 km/h 81 % 0 mm
12:51 11.2 °C 8.4 °C 1009.7 hPa NW 0.2 km/h 1.9 km/h 83 % 0 mm
12:56 11.7 °C 8.2 °C 1009.7 hPa ENE 3.5 km/h 5.6 km/h 79 % 0 mm
13:01 11.4 °C 7.7 °C 1009.4 hPa ENE 3.7 km/h 5.6 km/h 78 % 0 mm
13:06 11.4 °C 8.3 °C 1009.4 hPa NE 3.4 km/h 5.6 km/h 81 % 0 mm
13:11 11.3 °C 7.8 °C 1009.4 hPa ENE 3.5 km/h 6.4 km/h 79 % 0 mm
13:16 11.1 °C 7.8 °C 1009 hPa ENE 2.9 km/h 5.6 km/h 80 % 0 mm
13:21 11.3 °C 8.4 °C 1009 hPa NE 2.1 km/h 4.8 km/h 82 % 0 mm
13:26 11.6 °C 8.6 °C 1008.7 hPa NNE 3.2 km/h 5.6 km/h 82 % 0 mm
13:31 12 °C 9 °C 1008.7 hPa North 4.7 km/h 5.6 km/h 82 % 0 mm
13:37 12.2 °C 8.8 °C 1008.7 hPa NNE 4.7 km/h 7.4 km/h 80 % 0 mm
13:42 12.4 °C 8.7 °C 1008.7 hPa NNE 5.8 km/h 8 km/h 78 % 0 mm
13:47 12.6 °C 8.6 °C 1008.7 hPa NNE 3.1 km/h 5.6 km/h 77 % 0 mm
13:52 12.7 °C 8.4 °C 1008.7 hPa NNE 7.2 km/h 9.3 km/h 75 % 0 mm
13:57 12.8 °C 8.9 °C 1008.7 hPa NNE 2.6 km/h 5.6 km/h 77 % 0 mm
14:02 12.9 °C 8.6 °C 1008.7 hPa NE 3.1 km/h 5.6 km/h 75 % 0 mm
14:07 12.9 °C 8.8 °C 1008.7 hPa NE 2.1 km/h 5.6 km/h 76 % 0 mm
14:12 12.8 °C 8.5 °C 1008.7 hPa NNE 6 km/h 9.7 km/h 75 % 0 mm
14:17 12.8 °C 8.4 °C 1008.7 hPa NNE 1.4 km/h 5.6 km/h 75 % 0 mm
14:22 12.9 °C 9.3 °C 1008.4 hPa SW 6 km/h 9.3 km/h 79 % 0 mm
14:27 13.2 °C 9.7 °C 1008.4 hPa South 5.5 km/h 11.1 km/h 79 % 0 mm
14:32 13.7 °C 10.7 °C 1008.4 hPa West 2.3 km/h 9.3 km/h 82 % 0 mm
14:37 13.8 °C 9.2 °C 1008.4 hPa NE 3.1 km/h 5.6 km/h 74 % 0 mm
14:42 13.6 °C 8.8 °C 1008.4 hPa NNE 2.6 km/h 5.6 km/h 73 % 0 mm
14:47 13.4 °C 8.9 °C 1008.4 hPa NE 3.5 km/h 5.6 km/h 74 % 0 mm
14:52 12.9 °C 8.4 °C 1008.4 hPa NE 0.6 km/h 3.7 km/h 74 % 0 mm
14:57 12.4 °C 8.1 °C 1008.4 hPa NE 2.1 km/h 3.7 km/h 75 % 0 mm
15:02 12.1 °C 8.2 °C 1008 hPa NE 0.5 km/h 3.7 km/h 77 % 0 mm
15:08 12 °C 8.8 °C 1007.7 hPa South 8.2 km/h 11.1 km/h 81 % 0 mm
15:13 12.6 °C 10.7 °C 1008 hPa SSW 5.6 km/h 11.1 km/h 88 % 0 mm
15:18 13.2 °C 11.1 °C 1008.4 hPa SSW 6.6 km/h 9.3 km/h 87 % 0 mm
15:23 13.7 °C 11.6 °C 1008.4 hPa South 7.1 km/h 11.3 km/h 87 % 0 mm
15:28 14.3 °C 11.6 °C 1008.4 hPa South 6.3 km/h 11.1 km/h 84 % 0 mm
15:33 14.6 °C 11.7 °C 1008 hPa SSW 3.9 km/h 9.7 km/h 83 % 0 mm
15:38 15 °C 11.9 °C 1008 hPa South 4.3 km/h 5.6 km/h 82 % 0 mm
15:44 15.2 °C 11.9 °C 1008 hPa SSW 2.3 km/h 8 km/h 81 % 0 mm
15:49 15.3 °C 11.9 °C 1008 hPa SSW 0.8 km/h 3.7 km/h 80 % 0 mm
15:54 15.4 °C 12 °C 1008 hPa SSW 6.9 km/h 8 km/h 80 % 0 mm
15:59 15.6 °C 12.1 °C 1008.4 hPa SW 5.8 km/h 9.7 km/h 80 % 0 mm
16:04 15.6 °C 11.9 °C 1008.4 hPa South 6.9 km/h 9.7 km/h 79 % 0 mm
16:09 15.5 °C 11.7 °C 1008.4 hPa SSW 9.5 km/h 13 km/h 78 % 0 mm
16:14 15.4 °C 11.6 °C 1008.7 hPa South 8.7 km/h 11.1 km/h 78 % 0 mm
16:19 15.2 °C 11.6 °C 1008.7 hPa SSW 9.7 km/h 14.5 km/h 79 % 0 mm
16:24 15.1 °C 11.4 °C 1008.7 hPa SSW 9.7 km/h 14.8 km/h 79 % 0 mm
16:29 14.9 °C 11.5 °C 1008.7 hPa SW 8.9 km/h 16.7 km/h 80 % 0 mm
16:34 14.8 °C 11.4 °C 1009 hPa SW 4.3 km/h 9.3 km/h 80 % 0 mm
16:39 14.7 °C 11.3 °C 1009 hPa South 9.3 km/h 13 km/h 80 % 0 mm
16:44 14.6 °C 11.4 °C 1009 hPa SSW 6.6 km/h 14.8 km/h 81 % 0 mm
16:49 14.5 °C 11.3 °C 1009 hPa SW 5.8 km/h 18.5 km/h 81 % 0 mm
16:54 14.4 °C 11.3 °C 1009 hPa SW 6.4 km/h 13 km/h 82 % 0 mm
16:59 14.3 °C 11.3 °C 1009 hPa SSW 5.3 km/h 7.4 km/h 82 % 0 mm
17:04 14.2 °C 11.2 °C 1009 hPa SSW 5.8 km/h 9.3 km/h 82 % 0 mm
17:09 14.2 °C 11.3 °C 1009 hPa SSW 4.3 km/h 5.6 km/h 83 % 0 mm
17:14 14.1 °C 11.3 °C 1009 hPa SSW 3.5 km/h 7.4 km/h 83 % 0 mm
17:20 14 °C 11.3 °C 1009 hPa South 0.8 km/h 3.2 km/h 84 % 0 mm
17:25 13.9 °C 11.3 °C 1009 hPa South 4.5 km/h 11.1 km/h 84 % 0 mm
17:30 13.9 °C 11.2 °C 1009 hPa South 3.5 km/h 5.6 km/h 84 % 0 mm
17:35 13.8 °C 11.2 °C 1009.4 hPa SSW 6.1 km/h 9.3 km/h 84 % 0 mm
17:40 13.8 °C 11.1 °C 1009 hPa SW 3.9 km/h 5.6 km/h 84 % 0 mm
17:45 13.7 °C 11.2 °C 1009.4 hPa SSW 6 km/h 9.3 km/h 85 % 0 mm
17:50 13.7 °C 11.2 °C 1009.4 hPa SW 9 km/h 11.3 km/h 85 % 0 mm
17:55 13.7 °C 11.2 °C 1009.7 hPa SSW 6.8 km/h 11.3 km/h 85 % 0 mm
18:00 13.6 °C 11.1 °C 1009.7 hPa SSW 6.8 km/h 11.1 km/h 85 % 0 mm
18:05 13.6 °C 11.1 °C 1009.7 hPa South 8.4 km/h 11.1 km/h 85 % 0 mm
18:10 13.5 °C 11 °C 1009.7 hPa SSW 7.4 km/h 11.1 km/h 85 % 0 mm
18:15 13.4 °C 10.9 °C 1009.7 hPa South 5.8 km/h 11.1 km/h 85 % 0 mm
18:20 13.4 °C 10.9 °C 1009.7 hPa SSW 5.5 km/h 11.1 km/h 85 % 0 mm
18:25 13.3 °C 10.9 °C 1009.7 hPa SSW 2.1 km/h 11.1 km/h 85 % 0 mm
18:30 13.3 °C 10.8 °C 1010 hPa SW 2.9 km/h 9.3 km/h 85 % 0 mm
18:35 13.2 °C 10.8 °C 1010 hPa WSW 4 km/h 9.3 km/h 85 % 0 mm
18:40 13.2 °C 10.7 °C 1010.4 hPa West 4.2 km/h 5.6 km/h 85 % 0 mm
18:45 13.2 °C 10.7 °C 1010.4 hPa West 4.5 km/h 5.6 km/h 85 % 0 mm
18:50 13.1 °C 10.7 °C 1010.4 hPa West 4 km/h 7.4 km/h 85 % 0 mm
18:55 13 °C 10.6 °C 1010.4 hPa SW 3.5 km/h 6.4 km/h 85 % 0 mm
19:00 12.9 °C 10.5 °C 1010.4 hPa WSW 4 km/h 5.6 km/h 85 % 0 mm
19:05 12.8 °C 10.6 °C 1010.4 hPa SW 2.7 km/h 5.6 km/h 86 % 0 mm
19:10 12.8 °C 10.3 °C 1010.4 hPa SW 2.9 km/h 5.6 km/h 85 % 0 mm
19:15 12.7 °C 10.4 °C 1010.4 hPa SSW 4.3 km/h 6.4 km/h 86 % 0 mm
19:21 12.6 °C 10.3 °C 1010.4 hPa South 2.6 km/h 5.6 km/h 86 % 0 mm
19:26 12.5 °C 10.2 °C 1010.4 hPa WSW 2.1 km/h 5.6 km/h 86 % 0 mm
19:31 12.5 °C 10.2 °C 1010.4 hPa South 4.2 km/h 5.6 km/h 86 % 0 mm
19:36 12.4 °C 10.2 °C 1010.4 hPa SSW 3.5 km/h 5.6 km/h 86 % 0 mm
19:41 12.4 °C 10.1 °C 1010 hPa SSW 3.2 km/h 5.6 km/h 86 % 0 mm
19:46 12.3 °C 10.2 °C 1010 hPa SSW 3.5 km/h 5.6 km/h 87 % 0 mm
19:51 12.3 °C 10.2 °C 1010 hPa South 2.3 km/h 5.6 km/h 87 % 0 mm
19:56 12.3 °C 10.2 °C 1010 hPa SW 1 km/h 5.6 km/h 87 % 0 mm
20:01 12.3 °C 10.2 °C 1010 hPa SSW 1.4 km/h 7.4 km/h 87 % 0 mm
20:06 12.3 °C 10.2 °C 1010 hPa West 2.4 km/h 5.6 km/h 87 % 0 mm
20:11 12.4 °C 10.4 °C 1010.4 hPa SW 2.6 km/h 4.8 km/h 88 % 0 mm
20:16 12.4 °C 10.4 °C 1010 hPa SW 5.3 km/h 7.4 km/h 88 % 0 mm
20:21 12.4 °C 10.5 °C 1010 hPa SW 2.1 km/h 4.8 km/h 88 % 0 mm
20:26 12.5 °C 10.6 °C 1010.4 hPa WSW 2.3 km/h 5.6 km/h 88 % 0 mm
20:31 12.5 °C 10.4 °C 1010.4 hPa WSW 2.7 km/h 11.1 km/h 87 % 0 mm
20:36 12.6 °C 10.4 °C 1010.4 hPa SSW 4.5 km/h 7.4 km/h 87 % 0 mm
20:41 12.6 °C 10.5 °C 1010.4 hPa SW 4.5 km/h 7.4 km/h 87 % 0 mm
20:46 12.7 °C 10.6 °C 1010.4 hPa SW 5.3 km/h 9.3 km/h 87 % 0 mm
20:51 12.7 °C 10.6 °C 1010.7 hPa SSW 7.7 km/h 9.3 km/h 87 % 0 mm
20:56 12.8 °C 10.7 °C 1010.7 hPa SW 4 km/h 5.6 km/h 87 % 0 mm
21:01 12.8 °C 10.7 °C 1010.7 hPa SW 1.9 km/h 5.6 km/h 87 % 0 mm
21:06 12.9 °C 10.8 °C 1010.7 hPa SW 3.5 km/h 7.4 km/h 87 % 0 mm
21:11 13 °C 10.9 °C 1010.7 hPa WNW 0.6 km/h 3.7 km/h 87 % 0 mm
21:16 13.1 °C 10.8 °C 1011.1 hPa Calm   3.7 km/h 86 % 0 mm
21:21 13.1 °C 10.6 °C 1011.1 hPa WSW 0.3 km/h 1.9 km/h 85 % 0 mm
21:27 13 °C 10.6 °C 1010.7 hPa WSW 1.4 km/h 3.7 km/h 85 % 0 mm
21:32 13 °C 10.3 °C 1011.1 hPa WSW 1.3 km/h 3.2 km/h 84 % 0 mm
21:37 12.9 °C 10.2 °C 1011.1 hPa West 1.6 km/h 3.7 km/h 84 % 0 mm
21:42 12.8 °C 10.2 °C 1011.1 hPa SW 2.3 km/h 5.6 km/h 84 % 0 mm
21:47 12.7 °C 10.2 °C 1011.1 hPa Calm     85 % 0 mm
21:52 12.6 °C 10.2 °C 1011.1 hPa South 1.3 km/h 5.6 km/h 85 % 0 mm
21:57 12.5 °C 10.1 °C 1011.1 hPa WSW 0.3 km/h 5.6 km/h 85 % 0 mm
22:02 12.4 °C 10 °C 1011.1 hPa WSW 0.2 km/h 1.9 km/h 85 % 0 mm
22:07 12.3 °C 9.9 °C 1011.1 hPa Calm   1.9 km/h 85 % 0 mm
22:12 12.3 °C 9.8 °C 1011.4 hPa Calm   1.9 km/h 85 % 0 mm
22:17 12.2 °C 9.7 °C 1011.1 hPa Calm   3.7 km/h 85 % 0 mm
22:22 12.1 °C 9.7 °C 1011.1 hPa WSW 0.3 km/h 1.6 km/h 85 % 0 mm
22:27 11.9 °C 9.5 °C 1011.1 hPa South 3.5 km/h 9.3 km/h 85 % 0 mm
22:32 11.8 °C 9.5 °C 1011.1 hPa SSW 3.5 km/h 7.4 km/h 86 % 0 mm
22:37 11.7 °C 9.4 °C 1011.1 hPa SSW 1.1 km/h 3.7 km/h 86 % 0 mm
22:42 11.7 °C 9.4 °C 1011.1 hPa SW 3.7 km/h 5.6 km/h 86 % 0 mm
22:47 11.6 °C 9.7 °C 1011.1 hPa SW 3.1 km/h 6.4 km/h 88 % 0 mm
22:52 11.6 °C 9.7 °C 1011.4 hPa WNW 0.5 km/h 5.6 km/h 88 % 0 mm
22:57 11.6 °C 9.6 °C 1011.4 hPa SSW 5 km/h 9.3 km/h 88 % 0 mm
23:02 11.6 °C 9.8 °C 1011.4 hPa SW 4.5 km/h 14.8 km/h 89 % 0 mm
23:07 11.7 °C 9.9 °C 1011.4 hPa SW 8 km/h 12.9 km/h 89 % 0 mm
23:12 11.8 °C 10 °C 1011.4 hPa SW 4.5 km/h 7.4 km/h 89 % 0 mm
23:17 11.8 °C 9.9 °C 1011.4 hPa SSW 4.5 km/h 9.7 km/h 88 % 0 mm
23:22 11.8 °C 9.9 °C 1011.1 hPa SSW 4.3 km/h 8 km/h 88 % 0 mm
23:27 11.8 °C 9.9 °C 1011.1 hPa SSW 1.3 km/h 5.6 km/h 88 % 0 mm
23:33 11.8 °C 9.9 °C 1011.1 hPa SSW 2.3 km/h 4.8 km/h 88 % 0 mm
23:38 11.8 °C 9.9 °C 1011.1 hPa SW 1.8 km/h 5.6 km/h 88 % 0 mm
23:43 11.9 °C 9.9 °C 1011.4 hPa WSW 1 km/h 5.6 km/h 88 % 0 mm
23:48 11.9 °C 10 °C 1011.4 hPa SSW 0.2 km/h 1.9 km/h 88 % 0 mm
23:53 11.9 °C 10 °C 1011.4 hPa Calm   1.9 km/h 88 % 0 mm
23:58 11.9 °C 10 °C 1011.7 hPa WNW 3.2 km/h 7.4 km/h 88 % 0 mm
Crab Meadow Weather
Compliments of Weather Underground - 3 mb

Script developed by  Jim McMurry - jmcmurry@mwt.net Adapted for the template by  Wim van der Kuil - Leuven-Template.eu

Heat Index: The heat index combines air temperature and dew point in an attempt to determine the human-perceived equivalent temperature - how hot it feels. The human body normally cools itself by sweating, which evaporates and carries heat away from the body. However, when the relative humidity is high the evaporation rate is reduced, so heat is removed from the body at a lower rate causing it to retain more heat than it would in dry air.